Nearby METAR Reports

 

LGTS - THESALONIKI, GR
Distance from station: ΑΝΑ 85km
Ενημερώθηκε: 17/09/2019 07:50
Αίθριος
Αίθριος
 Ανεμος από varies
Ανεμος: varies 6 km/h
Θερμοκρασία: 17°C
Σημείο Δρόσου: 12°C
Υγρασία: 73%
Βαρόμετρο: 1015 hPa
Περίληψη: Αίθριος
Visibility: greater than 10 km
2019/09/17 04:50 LGTS 170450Z VRB03KT CAVOK 17/12 Q1015 NOSIG
LGAV - ATHENS, GR
Distance from station: ΑΝΑ 546km
Ενημερώθηκε: 17/09/2019 07:50
Αίθριος
Αίθριος
 Ανεμος από Δ
Ανεμος: Δ 4 km/h
Θερμοκρασία: 17°C
Σημείο Δρόσου: 11°C
Υγρασία: 68%
Βαρόμετρο: 1016 hPa
Περίληψη: Αίθριος
Visibility: greater than 10 km
2019/09/17 04:50 LGAV 170450Z 26002KT CAVOK 17/11 Q1016 NOSIG
 
LGKZ - KOZANI, GR
Distance from station: ΝΔ 130km
Ενημερώθηκε: 17/09/2019 07:50
Αίθριος
Αίθριος
 Ανεμος από ΒΒΔ
Ανεμος: ΒΒΔ 7 km/h
Θερμοκρασία: 15°C
Σημείο Δρόσου: 7°C
Υγρασία: 59%
Βαρόμετρο: 1018 hPa
Περίληψη: Αίθριος
Visibility: greater than 10 km
2019/09/17 04:50 LGKZ 170450Z 34004KT CAVOK 15/07 Q1018
LGIO - IOANNINA, GR
Distance from station: ΝΔ 265km
Ενημερώθηκε: 17/09/2019 07:50

 Ανεμος από varies
Ανεμος: varies 0 km/h
Θερμοκρασία: 10°C
Σημείο Δρόσου: 9°C
Υγρασία: 94%
Βαρόμετρο: 1018 hPa
2019/09/17 04:50 LGIO 170450Z AUTO /////KT //// // ////// 10/09 Q1018 RE//
 
LGKV - KABALA, GR
Distance from station: ΒΑ 220km
Ενημερώθηκε: 17/09/2019 07:50
Αίθριος
Αίθριος
 Ανεμος από calm
Ανεμος: Απνοια
Θερμοκρασία: 16°C
Σημείο Δρόσου: 13°C
Υγρασία: 83%
Βαρόμετρο: 1014 hPa
Περίληψη: Αίθριος
Visibility: greater than 10 km
2019/09/17 04:50 LGKV 170450Z 00000KT CAVOK 16/13 Q1014
LGAL - ALEXANDROUPOLI, GR
Distance from station: ΒΑ 367km
Ενημερώθηκε: 17/09/2019 07:50
Αίθριος
Αίθριος
 Ανεμος από calm
Ανεμος: Απνοια
Θερμοκρασία: 16°C
Σημείο Δρόσου: 13°C
Υγρασία: 83%
Βαρόμετρο: 1014 hPa
Περίληψη: Αίθριος
Visibility: greater than 10 km
2019/09/17 04:50 LGAL 170450Z 00000KT CAVOK 16/13 Q1014
 
LGSA - CHANIA,CRETE, GR
Distance from station: ΑΝΑ 866km
Ενημερώθηκε: 17/09/2019 07:50
Αίθριος
Αίθριος
 Ανεμος από calm
Ανεμος: Απνοια
Θερμοκρασία: 18°C
Σημείο Δρόσου: 13°C
Υγρασία: 73%
Βαρόμετρο: 1015 hPa
Περίληψη: Αίθριος
Visibility: greater than 10 km
2019/09/17 04:50 LGSA 170450Z 00000KT CAVOK 18/13 Q1015
LGIR - HERAKLIO, CRETE, GR
Distance from station: ΑΝΑ 882km
Ενημερώθηκε: 17/09/2019 07:50
Αίθριος
Αίθριος
 Ανεμος από Ν
Ανεμος: Ν 15 km/h
Θερμοκρασία: 19°C
Σημείο Δρόσου: 13°C
Υγρασία: 68%
Βαρόμετρο: 1014 hPa
Περίληψη: Αίθριος
Visibility: greater than 10 km
2019/09/17 04:50 LGIR 170450Z 18008KT CAVOK 19/13 Q1014 NOSIG
 
LGRP - RHODES, GR
Distance from station: ΑΝΑ 1.318km
Ενημερώθηκε: 17/09/2019 07:50
Αίθριος
Αίθριος
 Ανεμος από ΝΔ
Ανεμος: ΝΔ 17 km/h
Θερμοκρασία: 22°C
Σημείο Δρόσου: 18°C
Υγρασία: 78%
Βαρόμετρο: 1012 hPa
Περίληψη: Αίθριος
Visibility: greater than 10 km
2019/09/17 04:50 LGRP 170450Z 22009KT CAVOK 22/18 Q1012 NOSIG
LGLR - LARISSA, GR
Distance from station: ΝΔ 182km
Ενημερώθηκε: 17/09/2019 07:50
Αίθριος
Αίθριος
 Ανεμος από calm
Ανεμος: Απνοια
Θερμοκρασία: 14°C
Σημείο Δρόσου: 9°C
Υγρασία: 72%
Βαρόμετρο: 1015 hPa
Περίληψη: Αίθριος
Visibility: greater than 10 km
2019/09/17 04:50 LGLR 170450Z 00000KT CAVOK 14/09 Q1015 BLU